Ellerslie, Georgia
Current Conditions -  °F | °C
As of 9:51 AM on Thursday 18 Dec 2014 (Local Time) from KCSG Reporting Station
Clear Clear  
Wind Chill: 44°   Ceiling: Unl
Heat Index: 46°   Visibility: 10mi
Dew Point: 33°   Wind: 5mph
Humidity: 61%   Direction: NA
Pressure: 30.21"   Gusts: NA
Location:  32.63°N, 84.8°W
Report Text: KCSG 181451Z VRB04KT 10SM CLR 08/01 A3021 RMK AO2 SLP231 T00780006 51011
Loading
Personal Weather Stations






























Interactive Weather Map New forecast layout! Learn more

10-Day Weather Forecast

Advertisements
Track Severe Weather on mobile